AirNav   $300 off a Bose A20 aviation headset
 
 1496 users online  

8MO0 Barnes Jewish St Peters Hospital Heliport
St Peters, Missouri, USA

GOING TO ST PETERS?


FAA INFORMATION EFFECTIVE 28 FEBRUARY 2019

Location

FAA Identifier: 8MO0
Lat/Long: 38-47-38.2100N / 090-34-51.5200W
38-47.636833N / 090-34.858667W
38.7939472 / -90.5809778
(estimated)
Elevation: 513 ft. / 156 m (estimated)
Variation: 02E (1985)
From city: 1 mile E of ST PETERS, MO
Time zone: UTC -6 (UTC -5 during Daylight Saving Time)
Zip code: 63376

Heliport Operations

Heliport use: Private use, MEDICAL USE.
Activation date: 08/1991
Control tower: no
ARTCC: KANSAS CITY CENTER
FSS: SAINT LOUIS FLIGHT SERVICE STATION
Attendance: CONTINUOUS
Wind indicator: yes
Segmented circle: no
Lights: FOR FLOOD LGTS CALL 636-916-9000.

Heliport Communications

WX ASOS at SUS (9 nm SW): 134.8 (314-890-7255)
WX ASOS at STL (10 nm E): PHONE 314-890-4790
WX ASOS at SET (11 nm NE): 118.075 (636-250-4590)

Nearby radio navigation aids

VOR radial/distance  VOR name  Freq  Var
STLr228/6.1ST LOUIS VORTAC117.4001E
CSXr284/10.6CARDINAL VOR/DME116.4500E
FTZr067/19.2FORISTELL VORTAC110.8005E
TOYr272/31.2TROY VORTAC116.0004E

 
NDB name  Hdg/Dist  Freq  Var  ID
OBLIO267/5.033801WLM .-.. --
EAVES348/7.222701WFZ ..-. --..
SNOOP044/12.732601WSU ... ..-
ZUMAY272/14.140401WST ... -
CIVIC MEMORIAL257/25.226301WCVM -.-. ...- --

Heliport Services

Runway Information

Helipad H1

Dimensions: 50 x 50 ft. / 15 x 15 m
Surface: concrete
Runway edge lights: FLD
Latitude: 38-47.636833N
Longitude: 090-34.858667W
Elevation: 513.0 ft.
Traffic pattern: leftleft

Heliport Ownership and Management from official FAA records

Ownership: Privately-owned
Owner: BARNES-JEWISH ST PETERS HOSPITAL
10 HOSPITAL DR
ST PETERS, MO 63376
Phone 636-916-9000
Manager: CHRIS WAITES
10 HOSPITAL DR
ST PETERS, MO 63376
Phone 636-916-9000
JACK SELPH 636-916-9749.

Additional Remarks

FOR CD CTC ST LOUIS APCH AT 314-890-1018.

Instrument Procedures

There are no published instrument procedures at 8MO0.

Some nearby airports with instrument procedures:

1H0 - Creve Coeur Airport (5 nm SE)
KSUS - Spirit of St Louis Airport (9 nm SW)
KSTL - St Louis Lambert International Airport (10 nm E)
KSET - St Charles County Smartt Airport (11 nm NE)
KFYG - Washington Regional Airport (23 nm SW)
 
Loc | Ops | Rwys | IFR | FBO | Links
Com | Nav | Svcs | Stats | Notes

Kansas City Aviation Department
 
Area around 8MO0 (Barnes Jewish St Peters Hospital Heliport)
 
Road maps at: MapQuest Bing Google
 
Aerial photo
No photo
 
Sectional chart

 
Airport distance calculator
Flying to Barnes Jewish St Peters Hospital Heliport? Find the distance to fly.

From to 8MO0

Sunrise and sunset
Times for 25-Mar-2019
 Local
(UTC-5)
 Zulu
(UTC)
Morning civil twilight06:3211:32
Sunrise06:5911:59
Sunset19:1800:18
Evening civil twilight19:4400:44

Current date and time
Zulu (UTC)  25-Mar-2019 15:29:20
Local (UTC-5)  25-Mar-2019 10:29:20
 
METAR
KSUS 
9nm S 
251454Z 36011KT 8SM OVC011 07/04 A3016 RMK AO2 SLP216 T00670039 51032
KSTL 
10nm E 
251504Z 35009KT 10SM SCT012 OVC024 06/03 A3016 RMK AO2 T00560028
KSET 
11nm NE 
251454Z AUTO 02010KT 10SM BKN031 OVC045 06/03 A3017 RMK AO2 SLP217 T00610033 51032
TAF
KSUS 
9nm S 
251133Z 2512/2612 01010G19KT P6SM OVC007 TEMPO 2512/2514 4SM -DZ BR OVC005 FM251600 01011G19KT P6SM OVC016 FM251900 01010G16KT P6SM BKN025 FM252200 02006KT P6SM SCT035
KSTL 
10nm E 
251404Z 2514/2618 01011G20KT P6SM OVC008 FM251600 01011G18KT P6SM BKN016 FM251900 01011G17KT P6SM BKN022 FM252200 01010KT P6SM SCT035 FM260400 03008KT P6SM FEW250
NOTAMs
Click for the latest NOTAMs
NOTAMs are issued by the DoD/FAA and will open in a separate window not controlled by AirNav.

 

 
 

Would you like to see your business listed on this page?

 If your business provides an interesting product or service to pilots, flight crews, aircraft, or users of the Barnes Jewish St Peters Hospital Heliport, you should consider listing it here.  To start the listing process, click on the button below
 
Add a business
 

Other Pages about Barnes Jewish St Peters Hospital Heliport

Update a link
 
Copyright © AirNav, LLC. All rights reserved. Privacy Policy  Contact